sensor_id;sensor_type;location;lat;lon;timestamp;P1;durP1;ratioP1;P2;durP2;ratioP2
67640;SDS011;54434;50.096;20.082;2023-06-14T00:00:39;13.30;;;7.60;;
67640;SDS011;54434;50.096;20.082;2023-06-14T00:03:36;15.60;;;8.20;;
67640;SDS011;54434;50.096;20.082;2023-06-14T00:06:13;15.20;;;8.30;;
67640;SDS011;54434;50.096;20.082;2023-06-14T00:08:49;13.90;;;8.10;;
67640;SDS011;54434;50.096;20.082;2023-06-14T00:11:25;15.80;;;9.00;;
67640;SDS011;54434;50.096;20.082;2023-06-14T00:14:04;14.80;;;7.70;;
67640;SDS011;54434;50.096;20.082;2023-06-14T00:16:40;15.60;;;8.20;;
67640;SDS011;54434;50.096;20.082;2023-06-14T00:19:17;13.40;;;8.00;;
67640;SDS011;54434;50.096;20.082;2023-06-14T00:21:54;13.20;;;7.90;;
67640;SDS011;54434;50.096;20.082;2023-06-14T00:24:31;13.70;;;8.50;;
67640;SDS011;54434;50.096;20.082;2023-06-14T00:27:08;14.60;;;8.30;;
67640;SDS011;54434;50.096;20.082;2023-06-14T00:29:45;13.20;;;7.80;;
67640;SDS011;54434;50.096;20.082;2023-06-14T00:32:22;12.40;;;8.20;;
67640;SDS011;54434;50.096;20.082;2023-06-14T00:35:02;12.40;;;8.30;;
67640;SDS011;54434;50.096;20.082;2023-06-14T00:37:39;15.60;;;8.50;;
67640;SDS011;54434;50.096;20.082;2023-06-14T00:40:16;15.00;;;8.50;;
67640;SDS011;54434;50.096;20.082;2023-06-14T00:42:52;13.50;;;8.30;;
67640;SDS011;54434;50.096;20.082;2023-06-14T00:45:28;14.90;;;8.00;;
67640;SDS011;54434;50.096;20.082;2023-06-14T00:48:09;13.40;;;7.60;;
67640;SDS011;54434;50.096;20.082;2023-06-14T00:50:50;14.90;;;8.00;;
67640;SDS011;54434;50.096;20.082;2023-06-14T00:53:28;17.30;;;8.90;;
67640;SDS011;54434;50.096;20.082;2023-06-14T00:56:07;16.30;;;7.80;;
67640;SDS011;54434;50.096;20.082;2023-06-14T00:58:47;13.50;;;8.00;;
67640;SDS011;54434;50.096;20.082;2023-06-14T01:01:25;14.60;;;8.00;;
67640;SDS011;54434;50.096;20.082;2023-06-14T01:04:02;15.40;;;8.40;;
67640;SDS011;54434;50.096;20.082;2023-06-14T01:06:48;16.10;;;8.90;;
67640;SDS011;54434;50.096;20.082;2023-06-14T01:09:47;16.30;;;8.50;;
67640;SDS011;54434;50.096;20.082;2023-06-14T01:12:39;17.80;;;8.50;;
67640;SDS011;54434;50.096;20.082;2023-06-14T01:15:22;15.00;;;8.30;;
67640;SDS011;54434;50.096;20.082;2023-06-14T01:17:59;17.60;;;8.70;;
67640;SDS011;54434;50.096;20.082;2023-06-14T01:20:37;15.00;;;8.90;;
67640;SDS011;54434;50.096;20.082;2023-06-14T01:23:14;14.20;;;8.60;;
67640;SDS011;54434;50.096;20.082;2023-06-14T01:25:51;17.50;;;8.80;;
67640;SDS011;54434;50.096;20.082;2023-06-14T01:28:29;16.30;;;8.60;;
67640;SDS011;54434;50.096;20.082;2023-06-14T01:31:07;17.70;;;8.70;;
67640;SDS011;54434;50.096;20.082;2023-06-14T01:33:46;14.20;;;8.10;;
67640;SDS011;54434;50.096;20.082;2023-06-14T01:36:24;14.40;;;8.20;;
67640;SDS011;54434;50.096;20.082;2023-06-14T01:39:04;15.80;;;8.30;;
67640;SDS011;54434;50.096;20.082;2023-06-14T01:41:42;14.50;;;7.70;;
67640;SDS011;54434;50.096;20.082;2023-06-14T01:44:20;14.40;;;8.20;;
67640;SDS011;54434;50.096;20.082;2023-06-14T01:46:58;15.60;;;8.30;;
67640;SDS011;54434;50.096;20.082;2023-06-14T01:49:36;17.20;;;9.00;;
67640;SDS011;54434;50.096;20.082;2023-06-14T01:52:14;14.20;;;8.10;;
67640;SDS011;54434;50.096;20.082;2023-06-14T01:54:52;15.20;;;8.60;;
67640;SDS011;54434;50.096;20.082;2023-06-14T01:57:29;15.50;;;8.10;;
67640;SDS011;54434;50.096;20.082;2023-06-14T02:00:08;15.30;;;9.00;;
67640;SDS011;54434;50.096;20.082;2023-06-14T02:02:46;15.50;;;8.40;;
67640;SDS011;54434;50.096;20.082;2023-06-14T02:05:23;15.50;;;8.60;;
67640;SDS011;54434;50.096;20.082;2023-06-14T02:08:00;15.90;;;9.20;;
67640;SDS011;54434;50.096;20.082;2023-06-14T02:10:37;14.70;;;8.20;;
67640;SDS011;54434;50.096;20.082;2023-06-14T02:13:13;15.80;;;8.10;;
67640;SDS011;54434;50.096;20.082;2023-06-14T02:15:50;16.50;;;8.10;;
67640;SDS011;54434;50.096;20.082;2023-06-14T02:18:28;14.10;;;7.90;;
67640;SDS011;54434;50.096;20.082;2023-06-14T02:21:05;12.60;;;7.30;;
67640;SDS011;54434;50.096;20.082;2023-06-14T02:23:42;13.30;;;8.10;;
67640;SDS011;54434;50.096;20.082;2023-06-14T02:26:18;12.20;;;7.80;;
67640;SDS011;54434;50.096;20.082;2023-06-14T02:28:55;18.20;;;8.30;;
67640;SDS011;54434;50.096;20.082;2023-06-14T02:31:32;14.00;;;7.90;;
67640;SDS011;54434;50.096;20.082;2023-06-14T02:34:09;16.20;;;8.10;;
67640;SDS011;54434;50.096;20.082;2023-06-14T02:36:46;14.20;;;7.80;;
67640;SDS011;54434;50.096;20.082;2023-06-14T02:39:23;13.90;;;7.90;;
67640;SDS011;54434;50.096;20.082;2023-06-14T02:42:00;12.00;;;7.30;;
67640;SDS011;54434;50.096;20.082;2023-06-14T02:44:36;13.10;;;7.50;;
67640;SDS011;54434;50.096;20.082;2023-06-14T02:47:13;15.20;;;7.90;;
67640;SDS011;54434;50.096;20.082;2023-06-14T02:49:49;14.20;;;8.20;;
67640;SDS011;54434;50.096;20.082;2023-06-14T02:52:26;16.60;;;9.70;;
67640;SDS011;54434;50.096;20.082;2023-06-14T02:55:03;13.00;;;8.30;;
67640;SDS011;54434;50.096;20.082;2023-06-14T02:57:41;12.00;;;7.40;;
67640;SDS011;54434;50.096;20.082;2023-06-14T03:00:19;15.40;;;7.80;;
67640;SDS011;54434;50.096;20.082;2023-06-14T03:02:57;12.00;;;7.40;;
67640;SDS011;54434;50.096;20.082;2023-06-14T03:05:35;11.40;;;7.10;;
67640;SDS011;54434;50.096;20.082;2023-06-14T03:08:14;13.50;;;7.50;;
67640;SDS011;54434;50.096;20.082;2023-06-14T03:10:53;12.20;;;7.20;;
67640;SDS011;54434;50.096;20.082;2023-06-14T03:13:30;11.00;;;6.80;;
67640;SDS011;54434;50.096;20.082;2023-06-14T03:16:08;10.90;;;6.90;;
67640;SDS011;54434;50.096;20.082;2023-06-14T03:18:45;13.10;;;7.10;;
67640;SDS011;54434;50.096;20.082;2023-06-14T03:21:22;14.10;;;7.20;;
67640;SDS011;54434;50.096;20.082;2023-06-14T03:24:00;24.20;;;13.10;;
67640;SDS011;54434;50.096;20.082;2023-06-14T03:26:37;13.20;;;7.90;;
67640;SDS011;54434;50.096;20.082;2023-06-14T03:29:14;11.30;;;6.50;;
67640;SDS011;54434;50.096;20.082;2023-06-14T03:32:02;10.60;;;6.70;;
67640;SDS011;54434;50.096;20.082;2023-06-14T03:34:42;12.20;;;7.20;;
67640;SDS011;54434;50.096;20.082;2023-06-14T03:37:24;12.80;;;7.90;;
67640;SDS011;54434;50.096;20.082;2023-06-14T03:40:00;14.10;;;8.20;;
67640;SDS011;54434;50.096;20.082;2023-06-14T03:42:42;12.90;;;7.40;;
67640;SDS011;54434;50.096;20.082;2023-06-14T03:45:19;11.20;;;6.80;;
67640;SDS011;54434;50.096;20.082;2023-06-14T03:47:55;11.50;;;6.80;;
67640;SDS011;54434;50.096;20.082;2023-06-14T03:50:35;11.40;;;6.30;;
67640;SDS011;54434;50.096;20.082;2023-06-14T03:53:12;9.40;;;5.60;;
67640;SDS011;54434;50.096;20.082;2023-06-14T03:55:53;9.00;;;6.00;;
67640;SDS011;54434;50.096;20.082;2023-06-14T03:58:34;10.50;;;6.00;;
67640;SDS011;54434;50.096;20.082;2023-06-14T04:01:11;9.20;;;5.80;;
67640;SDS011;54434;50.096;20.082;2023-06-14T04:03:48;10.30;;;6.00;;
67640;SDS011;54434;50.096;20.082;2023-06-14T04:06:25;9.90;;;6.00;;
67640;SDS011;54434;50.096;20.082;2023-06-14T04:09:06;10.40;;;5.50;;
67640;SDS011;54434;50.096;20.082;2023-06-14T04:11:42;8.90;;;5.70;;
67640;SDS011;54434;50.096;20.082;2023-06-14T04:14:19;9.50;;;5.70;;
67640;SDS011;54434;50.096;20.082;2023-06-14T04:16:56;8.60;;;5.60;;
67640;SDS011;54434;50.096;20.082;2023-06-14T04:19:32;8.80;;;6.10;;
67640;SDS011;54434;50.096;20.082;2023-06-14T04:22:09;8.20;;;5.20;;
67640;SDS011;54434;50.096;20.082;2023-06-14T04:24:46;9.80;;;5.30;;
67640;SDS011;54434;50.096;20.082;2023-06-14T04:27:37;6.90;;;4.70;;
67640;SDS011;54434;50.096;20.082;2023-06-14T04:30:16;8.80;;;4.80;;
67640;SDS011;54434;50.096;20.082;2023-06-14T04:32:56;7.70;;;5.00;;
67640;SDS011;54434;50.096;20.082;2023-06-14T04:35:33;7.20;;;4.30;;
67640;SDS011;54434;50.096;20.082;2023-06-14T04:38:10;6.80;;;4.30;;
67640;SDS011;54434;50.096;20.082;2023-06-14T04:40:49;6.30;;;3.70;;
67640;SDS011;54434;50.096;20.082;2023-06-14T04:43:27;4.90;;;3.10;;
67640;SDS011;54434;50.096;20.082;2023-06-14T04:46:05;6.80;;;3.00;;
67640;SDS011;54434;50.096;20.082;2023-06-14T04:48:44;4.00;;;2.80;;
67640;SDS011;54434;50.096;20.082;2023-06-14T04:51:22;4.30;;;2.60;;
67640;SDS011;54434;50.096;20.082;2023-06-14T04:54:03;4.20;;;2.60;;
67640;SDS011;54434;50.096;20.082;2023-06-14T04:56:44;4.80;;;2.50;;
67640;SDS011;54434;50.096;20.082;2023-06-14T04:59:20;3.30;;;2.50;;
67640;SDS011;54434;50.096;20.082;2023-06-14T05:01:57;4.90;;;2.50;;
67640;SDS011;54434;50.096;20.082;2023-06-14T05:04:34;4.10;;;2.40;;
67640;SDS011;54434;50.096;20.082;2023-06-14T05:07:13;5.60;;;2.40;;
67640;SDS011;54434;50.096;20.082;2023-06-14T05:09:50;3.50;;;2.30;;
67640;SDS011;54434;50.096;20.082;2023-06-14T05:12:27;3.50;;;2.40;;
67640;SDS011;54434;50.096;20.082;2023-06-14T05:15:05;4.20;;;2.40;;
67640;SDS011;54434;50.096;20.082;2023-06-14T05:17:44;5.20;;;2.40;;
67640;SDS011;54434;50.096;20.082;2023-06-14T05:20:27;3.50;;;2.10;;
67640;SDS011;54434;50.096;20.082;2023-06-14T05:23:04;5.30;;;2.20;;
67640;SDS011;54434;50.096;20.082;2023-06-14T05:25:40;3.40;;;2.30;;
67640;SDS011;54434;50.096;20.082;2023-06-14T05:28:18;3.20;;;2.20;;
67640;SDS011;54434;50.096;20.082;2023-06-14T05:30:55;5.40;;;2.50;;
67640;SDS011;54434;50.096;20.082;2023-06-14T05:33:32;7.60;;;3.20;;
67640;SDS011;54434;50.096;20.082;2023-06-14T05:36:09;7.40;;;4.00;;
67640;SDS011;54434;50.096;20.082;2023-06-14T05:38:46;8.20;;;4.10;;
67640;SDS011;54434;50.096;20.082;2023-06-14T05:41:24;6.50;;;4.20;;
67640;SDS011;54434;50.096;20.082;2023-06-14T05:44:01;6.80;;;4.20;;
67640;SDS011;54434;50.096;20.082;2023-06-14T05:46:38;6.50;;;3.80;;
67640;SDS011;54434;50.096;20.082;2023-06-14T05:49:14;8.80;;;4.90;;
67640;SDS011;54434;50.096;20.082;2023-06-14T05:51:51;7.50;;;4.80;;
67640;SDS011;54434;50.096;20.082;2023-06-14T05:54:28;10.10;;;5.90;;
67640;SDS011;54434;50.096;20.082;2023-06-14T05:57:05;11.60;;;5.60;;
67640;SDS011;54434;50.096;20.082;2023-06-14T05:59:41;9.40;;;6.20;;
67640;SDS011;54434;50.096;20.082;2023-06-14T06:02:18;10.40;;;6.00;;
67640;SDS011;54434;50.096;20.082;2023-06-14T06:04:55;9.50;;;5.60;;
67640;SDS011;54434;50.096;20.082;2023-06-14T06:07:31;8.00;;;5.10;;
67640;SDS011;54434;50.096;20.082;2023-06-14T06:10:12;7.40;;;5.00;;
67640;SDS011;54434;50.096;20.082;2023-06-14T06:12:48;8.00;;;4.80;;
67640;SDS011;54434;50.096;20.082;2023-06-14T06:15:25;7.80;;;4.40;;
67640;SDS011;54434;50.096;20.082;2023-06-14T06:18:02;7.90;;;4.40;;
67640;SDS011;54434;50.096;20.082;2023-06-14T06:20:39;6.20;;;4.30;;
67640;SDS011;54434;50.096;20.082;2023-06-14T06:23:15;4.90;;;3.50;;
67640;SDS011;54434;50.096;20.082;2023-06-14T06:25:51;6.80;;;3.90;;
67640;SDS011;54434;50.096;20.082;2023-06-14T06:28:28;4.70;;;3.20;;
67640;SDS011;54434;50.096;20.082;2023-06-14T06:31:04;5.00;;;2.80;;
67640;SDS011;54434;50.096;20.082;2023-06-14T06:33:41;4.10;;;2.70;;
67640;SDS011;54434;50.096;20.082;2023-06-14T06:36:18;4.20;;;2.40;;
67640;SDS011;54434;50.096;20.082;2023-06-14T06:38:54;4.20;;;2.60;;
67640;SDS011;54434;50.096;20.082;2023-06-14T06:41:31;4.40;;;2.50;;
67640;SDS011;54434;50.096;20.082;2023-06-14T06:44:08;4.30;;;2.60;;
67640;SDS011;54434;50.096;20.082;2023-06-14T06:46:46;5.10;;;2.70;;
67640;SDS011;54434;50.096;20.082;2023-06-14T06:49:22;3.70;;;2.50;;
67640;SDS011;54434;50.096;20.082;2023-06-14T06:52:07;5.40;;;3.40;;
67640;SDS011;54434;50.096;20.082;2023-06-14T06:54:44;4.90;;;3.10;;
67640;SDS011;54434;50.096;20.082;2023-06-14T06:57:20;5.70;;;4.00;;
67640;SDS011;54434;50.096;20.082;2023-06-14T06:59:57;5.40;;;3.70;;
67640;SDS011;54434;50.096;20.082;2023-06-14T07:02:34;6.10;;;4.30;;
67640;SDS011;54434;50.096;20.082;2023-06-14T07:05:11;6.20;;;4.30;;
67640;SDS011;54434;50.096;20.082;2023-06-14T07:07:48;6.30;;;3.90;;
67640;SDS011;54434;50.096;20.082;2023-06-14T07:10:26;6.40;;;3.80;;
67640;SDS011;54434;50.096;20.082;2023-06-14T07:13:02;5.70;;;3.90;;
67640;SDS011;54434;50.096;20.082;2023-06-14T07:15:42;6.70;;;4.20;;
67640;SDS011;54434;50.096;20.082;2023-06-14T07:18:19;6.30;;;4.20;;
67640;SDS011;54434;50.096;20.082;2023-06-14T07:20:56;11.90;;;4.40;;
67640;SDS011;54434;50.096;20.082;2023-06-14T07:23:33;8.50;;;4.60;;
67640;SDS011;54434;50.096;20.082;2023-06-14T07:26:10;6.90;;;4.70;;
67640;SDS011;54434;50.096;20.082;2023-06-14T07:28:48;7.30;;;5.00;;
67640;SDS011;54434;50.096;20.082;2023-06-14T07:31:24;6.80;;;4.80;;
67640;SDS011;54434;50.096;20.082;2023-06-14T07:34:02;6.90;;;4.80;;
67640;SDS011;54434;50.096;20.082;2023-06-14T07:36:39;8.10;;;5.10;;
67640;SDS011;54434;50.096;20.082;2023-06-14T07:39:18;6.40;;;4.60;;
67640;SDS011;54434;50.096;20.082;2023-06-14T07:41:55;7.10;;;4.70;;
67640;SDS011;54434;50.096;20.082;2023-06-14T07:44:32;7.70;;;4.20;;
67640;SDS011;54434;50.096;20.082;2023-06-14T07:47:09;6.10;;;4.10;;
67640;SDS011;54434;50.096;20.082;2023-06-14T07:49:46;6.80;;;4.20;;
67640;SDS011;54434;50.096;20.082;2023-06-14T07:52:22;5.60;;;3.90;;
67640;SDS011;54434;50.096;20.082;2023-06-14T07:54:59;7.20;;;4.50;;
67640;SDS011;54434;50.096;20.082;2023-06-14T07:57:35;6.90;;;4.80;;
67640;SDS011;54434;50.096;20.082;2023-06-14T08:00:15;7.40;;;4.80;;
67640;SDS011;54434;50.096;20.082;2023-06-14T08:02:53;7.40;;;5.20;;
67640;SDS011;54434;50.096;20.082;2023-06-14T08:05:34;9.00;;;5.70;;
67640;SDS011;54434;50.096;20.082;2023-06-14T08:08:10;8.10;;;6.00;;
67640;SDS011;54434;50.096;20.082;2023-06-14T08:10:47;9.70;;;5.90;;
67640;SDS011;54434;50.096;20.082;2023-06-14T08:13:23;8.20;;;5.30;;
67640;SDS011;54434;50.096;20.082;2023-06-14T08:16:00;9.60;;;6.20;;
67640;SDS011;54434;50.096;20.082;2023-06-14T08:18:38;9.60;;;6.70;;
67640;SDS011;54434;50.096;20.082;2023-06-14T08:21:15;11.00;;;8.00;;
67640;SDS011;54434;50.096;20.082;2023-06-14T08:23:51;10.00;;;7.00;;
67640;SDS011;54434;50.096;20.082;2023-06-14T08:26:28;8.20;;;6.40;;
67640;SDS011;54434;50.096;20.082;2023-06-14T08:29:05;9.80;;;6.50;;
67640;SDS011;54434;50.096;20.082;2023-06-14T08:31:42;8.70;;;6.80;;
67640;SDS011;54434;50.096;20.082;2023-06-14T08:34:19;8.80;;;6.40;;
67640;SDS011;54434;50.096;20.082;2023-06-14T08:36:57;8.10;;;5.70;;
67640;SDS011;54434;50.096;20.082;2023-06-14T08:39:35;8.30;;;6.00;;
67640;SDS011;54434;50.096;20.082;2023-06-14T08:42:11;11.10;;;6.20;;
67640;SDS011;54434;50.096;20.082;2023-06-14T08:45:04;8.90;;;6.80;;
67640;SDS011;54434;50.096;20.082;2023-06-14T08:47:41;10.40;;;6.50;;
67640;SDS011;54434;50.096;20.082;2023-06-14T08:50:21;10.20;;;6.70;;
67640;SDS011;54434;50.096;20.082;2023-06-14T08:53:02;9.60;;;6.60;;
67640;SDS011;54434;50.096;20.082;2023-06-14T08:55:43;8.80;;;6.00;;
67640;SDS011;54434;50.096;20.082;2023-06-14T08:58:21;11.00;;;6.40;;
67640;SDS011;54434;50.096;20.082;2023-06-14T09:00:58;9.50;;;6.90;;
67640;SDS011;54434;50.096;20.082;2023-06-14T09:03:36;9.00;;;6.90;;
67640;SDS011;54434;50.096;20.082;2023-06-14T09:06:14;10.10;;;6.80;;
67640;SDS011;54434;50.096;20.082;2023-06-14T09:08:52;10.20;;;7.20;;
67640;SDS011;54434;50.096;20.082;2023-06-14T09:11:31;9.00;;;7.00;;
67640;SDS011;54434;50.096;20.082;2023-06-14T09:14:09;11.00;;;7.50;;
67640;SDS011;54434;50.096;20.082;2023-06-14T09:16:46;9.90;;;7.00;;
67640;SDS011;54434;50.096;20.082;2023-06-14T09:19:27;9.70;;;6.80;;
67640;SDS011;54434;50.096;20.082;2023-06-14T09:22:06;10.00;;;7.20;;
67640;SDS011;54434;50.096;20.082;2023-06-14T09:24:46;9.40;;;6.80;;
67640;SDS011;54434;50.096;20.082;2023-06-14T09:27:22;9.40;;;6.90;;
67640;SDS011;54434;50.096;20.082;2023-06-14T09:30:00;8.90;;;6.60;;
67640;SDS011;54434;50.096;20.082;2023-06-14T09:32:39;8.30;;;6.60;;
67640;SDS011;54434;50.096;20.082;2023-06-14T09:35:19;10.70;;;7.40;;
67640;SDS011;54434;50.096;20.082;2023-06-14T09:37:56;11.30;;;7.90;;
67640;SDS011;54434;50.096;20.082;2023-06-14T09:40:36;10.40;;;7.80;;
67640;SDS011;54434;50.096;20.082;2023-06-14T09:43:13;11.20;;;8.30;;
67640;SDS011;54434;50.096;20.082;2023-06-14T09:45:50;12.20;;;7.90;;
67640;SDS011;54434;50.096;20.082;2023-06-14T09:48:27;11.00;;;7.60;;
67640;SDS011;54434;50.096;20.082;2023-06-14T09:51:04;10.20;;;7.60;;
67640;SDS011;54434;50.096;20.082;2023-06-14T09:53:42;13.80;;;8.40;;
67640;SDS011;54434;50.096;20.082;2023-06-14T09:56:25;13.10;;;7.70;;
67640;SDS011;54434;50.096;20.082;2023-06-14T09:59:06;14.40;;;7.50;;
67640;SDS011;54434;50.096;20.082;2023-06-14T10:01:48;10.30;;;7.70;;
67640;SDS011;54434;50.096;20.082;2023-06-14T10:04:25;12.40;;;7.10;;
67640;SDS011;54434;50.096;20.082;2023-06-14T10:07:06;10.30;;;7.50;;
67640;SDS011;54434;50.096;20.082;2023-06-14T10:09:43;10.50;;;7.50;;
67640;SDS011;54434;50.096;20.082;2023-06-14T10:12:23;15.30;;;8.00;;
67640;SDS011;54434;50.096;20.082;2023-06-14T10:15:00;13.20;;;7.20;;
67640;SDS011;54434;50.096;20.082;2023-06-14T10:17:45;11.30;;;7.60;;
67640;SDS011;54434;50.096;20.082;2023-06-14T10:20:33;9.60;;;7.10;;
67640;SDS011;54434;50.096;20.082;2023-06-14T10:23:19;11.20;;;7.40;;
67640;SDS011;54434;50.096;20.082;2023-06-14T10:25:59;11.70;;;7.70;;
67640;SDS011;54434;50.096;20.082;2023-06-14T10:28:38;9.80;;;7.70;;
67640;SDS011;54434;50.096;20.082;2023-06-14T10:31:14;11.00;;;7.60;;
67640;SDS011;54434;50.096;20.082;2023-06-14T10:33:57;12.30;;;7.80;;
67640;SDS011;54434;50.096;20.082;2023-06-14T10:36:34;10.90;;;7.70;;
67640;SDS011;54434;50.096;20.082;2023-06-14T10:39:14;10.80;;;8.00;;
67640;SDS011;54434;50.096;20.082;2023-06-14T10:41:57;11.50;;;8.10;;
67640;SDS011;54434;50.096;20.082;2023-06-14T10:44:47;10.30;;;8.00;;
67640;SDS011;54434;50.096;20.082;2023-06-14T10:47:29;11.30;;;8.30;;
67640;SDS011;54434;50.096;20.082;2023-06-14T10:50:11;10.80;;;7.90;;
67640;SDS011;54434;50.096;20.082;2023-06-14T10:52:49;10.10;;;7.80;;
67640;SDS011;54434;50.096;20.082;2023-06-14T10:55:26;12.10;;;7.90;;
67640;SDS011;54434;50.096;20.082;2023-06-14T10:58:09;10.30;;;7.40;;
67640;SDS011;54434;50.096;20.082;2023-06-14T11:00:47;9.80;;;7.30;;
67640;SDS011;54434;50.096;20.082;2023-06-14T11:03:46;8.70;;;6.80;;
67640;SDS011;54434;50.096;20.082;2023-06-14T11:06:34;8.70;;;6.90;;
67640;SDS011;54434;50.096;20.082;2023-06-14T11:09:54;8.90;;;6.80;;
67640;SDS011;54434;50.096;20.082;2023-06-14T11:12:41;10.50;;;7.00;;
67640;SDS011;54434;50.096;20.082;2023-06-14T11:15:20;9.70;;;6.60;;
67640;SDS011;54434;50.096;20.082;2023-06-14T11:18:04;9.90;;;6.80;;
67640;SDS011;54434;50.096;20.082;2023-06-14T11:20:42;10.60;;;7.10;;
67640;SDS011;54434;50.096;20.082;2023-06-14T11:23:22;11.00;;;7.10;;
67640;SDS011;54434;50.096;20.082;2023-06-14T11:25:59;9.30;;;6.60;;
67640;SDS011;54434;50.096;20.082;2023-06-14T11:28:41;10.00;;;7.10;;
67640;SDS011;54434;50.096;20.082;2023-06-14T11:31:17;10.20;;;7.00;;
67640;SDS011;54434;50.096;20.082;2023-06-14T11:33:58;10.00;;;7.00;;
67640;SDS011;54434;50.096;20.082;2023-06-14T11:36:38;9.90;;;6.40;;
67640;SDS011;54434;50.096;20.082;2023-06-14T11:39:15;9.10;;;6.60;;
67640;SDS011;54434;50.096;20.082;2023-06-14T11:41:51;9.00;;;6.50;;
67640;SDS011;54434;50.096;20.082;2023-06-14T11:44:29;10.40;;;6.30;;
67640;SDS011;54434;50.096;20.082;2023-06-14T11:47:09;11.60;;;6.70;;
67640;SDS011;54434;50.096;20.082;2023-06-14T11:49:45;9.30;;;5.70;;
67640;SDS011;54434;50.096;20.082;2023-06-14T11:52:22;10.50;;;5.60;;
67640;SDS011;54434;50.096;20.082;2023-06-14T11:54:58;8.30;;;5.40;;
67640;SDS011;54434;50.096;20.082;2023-06-14T11:57:38;8.40;;;5.30;;
67640;SDS011;54434;50.096;20.082;2023-06-14T12:00:18;8.00;;;4.90;;
67640;SDS011;54434;50.096;20.082;2023-06-14T12:02:59;6.80;;;4.90;;
67640;SDS011;54434;50.096;20.082;2023-06-14T12:05:36;7.30;;;5.10;;
67640;SDS011;54434;50.096;20.082;2023-06-14T12:08:13;6.50;;;4.40;;
67640;SDS011;54434;50.096;20.082;2023-06-14T12:10:54;9.90;;;4.70;;
67640;SDS011;54434;50.096;20.082;2023-06-14T12:13:31;7.90;;;5.10;;
67640;SDS011;54434;50.096;20.082;2023-06-14T12:16:08;9.20;;;5.70;;
67640;SDS011;54434;50.096;20.082;2023-06-14T12:18:45;8.00;;;5.40;;
67640;SDS011;54434;50.096;20.082;2023-06-14T12:21:25;8.00;;;5.30;;
67640;SDS011;54434;50.096;20.082;2023-06-14T12:24:05;10.50;;;5.80;;
67640;SDS011;54434;50.096;20.082;2023-06-14T12:26:43;9.20;;;6.10;;
67640;SDS011;54434;50.096;20.082;2023-06-14T12:29:22;8.50;;;5.80;;
67640;SDS011;54434;50.096;20.082;2023-06-14T12:31:58;7.20;;;5.40;;
67640;SDS011;54434;50.096;20.082;2023-06-14T12:34:35;9.70;;;5.70;;
67640;SDS011;54434;50.096;20.082;2023-06-14T12:37:11;9.00;;;5.30;;
67640;SDS011;54434;50.096;20.082;2023-06-14T12:39:48;9.40;;;5.80;;
67640;SDS011;54434;50.096;20.082;2023-06-14T12:42:25;8.10;;;5.40;;
67640;SDS011;54434;50.096;20.082;2023-06-14T12:45:02;7.80;;;5.40;;
67640;SDS011;54434;50.096;20.082;2023-06-14T12:47:39;8.00;;;5.60;;
67640;SDS011;54434;50.096;20.082;2023-06-14T12:50:16;7.50;;;5.10;;
67640;SDS011;54434;50.096;20.082;2023-06-14T12:52:57;9.50;;;5.40;;
67640;SDS011;54434;50.096;20.082;2023-06-14T12:55:35;8.00;;;5.20;;
67640;SDS011;54434;50.096;20.082;2023-06-14T12:58:11;8.20;;;5.20;;
67640;SDS011;54434;50.096;20.082;2023-06-14T13:00:48;6.90;;;4.90;;
67640;SDS011;54434;50.096;20.082;2023-06-14T13:03:24;9.00;;;5.40;;
67640;SDS011;54434;50.096;20.082;2023-06-14T13:06:01;6.70;;;4.20;;
67640;SDS011;54434;50.096;20.082;2023-06-14T13:08:38;7.10;;;5.00;;
67640;SDS011;54434;50.096;20.082;2023-06-14T13:11:15;7.00;;;4.50;;
67640;SDS011;54434;50.096;20.082;2023-06-14T13:13:51;7.20;;;4.50;;
67640;SDS011;54434;50.096;20.082;2023-06-14T13:16:28;7.30;;;4.30;;
67640;SDS011;54434;50.096;20.082;2023-06-14T13:19:05;6.60;;;4.00;;
67640;SDS011;54434;50.096;20.082;2023-06-14T13:21:41;10.30;;;4.10;;
67640;SDS011;54434;50.096;20.082;2023-06-14T13:24:18;6.10;;;3.80;;
67640;SDS011;54434;50.096;20.082;2023-06-14T13:26:54;5.70;;;3.70;;
67640;SDS011;54434;50.096;20.082;2023-06-14T13:29:31;6.10;;;4.20;;
67640;SDS011;54434;50.096;20.082;2023-06-14T13:32:10;6.40;;;3.70;;
67640;SDS011;54434;50.096;20.082;2023-06-14T13:34:47;6.90;;;4.30;;
67640;SDS011;54434;50.096;20.082;2023-06-14T13:37:23;8.40;;;4.30;;
67640;SDS011;54434;50.096;20.082;2023-06-14T13:40:00;7.20;;;4.40;;
67640;SDS011;54434;50.096;20.082;2023-06-14T13:42:37;6.80;;;4.30;;
67640;SDS011;54434;50.096;20.082;2023-06-14T13:45:14;6.60;;;4.20;;
67640;SDS011;54434;50.096;20.082;2023-06-14T13:47:51;7.40;;;4.20;;
67640;SDS011;54434;50.096;20.082;2023-06-14T13:50:28;7.70;;;3.90;;
67640;SDS011;54434;50.096;20.082;2023-06-14T13:53:05;7.90;;;4.10;;
67640;SDS011;54434;50.096;20.082;2023-06-14T13:55:44;8.20;;;4.70;;
67640;SDS011;54434;50.096;20.082;2023-06-14T13:58:20;7.40;;;4.10;;
67640;SDS011;54434;50.096;20.082;2023-06-14T14:00:58;6.80;;;3.70;;
67640;SDS011;54434;50.096;20.082;2023-06-14T14:03:36;6.40;;;4.00;;
67640;SDS011;54434;50.096;20.082;2023-06-14T14:06:13;6.90;;;4.40;;
67640;SDS011;54434;50.096;20.082;2023-06-14T14:08:52;6.90;;;3.40;;
67640;SDS011;54434;50.096;20.082;2023-06-14T14:11:29;6.50;;;4.20;;
67640;SDS011;54434;50.096;20.082;2023-06-14T14:14:07;6.80;;;4.00;;
67640;SDS011;54434;50.096;20.082;2023-06-14T14:16:43;7.40;;;4.60;;
67640;SDS011;54434;50.096;20.082;2023-06-14T14:19:23;7.60;;;4.50;;
67640;SDS011;54434;50.096;20.082;2023-06-14T14:22:00;6.70;;;4.20;;
67640;SDS011;54434;50.096;20.082;2023-06-14T14:24:37;7.40;;;4.70;;
67640;SDS011;54434;50.096;20.082;2023-06-14T14:27:14;6.80;;;4.50;;
67640;SDS011;54434;50.096;20.082;2023-06-14T14:29:50;6.70;;;4.00;;
67640;SDS011;54434;50.096;20.082;2023-06-14T14:32:27;7.80;;;4.10;;
67640;SDS011;54434;50.096;20.082;2023-06-14T14:35:05;7.70;;;4.00;;
67640;SDS011;54434;50.096;20.082;2023-06-14T14:37:42;7.60;;;4.40;;
67640;SDS011;54434;50.096;20.082;2023-06-14T14:40:19;8.70;;;4.10;;
67640;SDS011;54434;50.096;20.082;2023-06-14T14:42:56;7.10;;;4.60;;
67640;SDS011;54434;50.096;20.082;2023-06-14T14:45:32;6.30;;;3.90;;
67640;SDS011;54434;50.096;20.082;2023-06-14T14:48:09;5.50;;;3.70;;
67640;SDS011;54434;50.096;20.082;2023-06-14T14:50:46;7.10;;;3.90;;
67640;SDS011;54434;50.096;20.082;2023-06-14T14:53:22;6.70;;;3.70;;
67640;SDS011;54434;50.096;20.082;2023-06-14T14:55:59;7.00;;;4.10;;
67640;SDS011;54434;50.096;20.082;2023-06-14T14:58:39;6.10;;;4.10;;
67640;SDS011;54434;50.096;20.082;2023-06-14T15:01:15;6.40;;;4.00;;
67640;SDS011;54434;50.096;20.082;2023-06-14T15:03:52;7.00;;;3.90;;
67640;SDS011;54434;50.096;20.082;2023-06-14T15:06:32;6.90;;;4.10;;
67640;SDS011;54434;50.096;20.082;2023-06-14T15:09:12;7.10;;;4.10;;
67640;SDS011;54434;50.096;20.082;2023-06-14T15:11:48;5.80;;;3.60;;
67640;SDS011;54434;50.096;20.082;2023-06-14T15:14:25;6.90;;;4.00;;
67640;SDS011;54434;50.096;20.082;2023-06-14T15:17:01;6.30;;;4.10;;
67640;SDS011;54434;50.096;20.082;2023-06-14T15:19:41;7.30;;;4.10;;
67640;SDS011;54434;50.096;20.082;2023-06-14T15:22:18;6.90;;;4.10;;
67640;SDS011;54434;50.096;20.082;2023-06-14T15:24:54;7.20;;;4.50;;
67640;SDS011;54434;50.096;20.082;2023-06-14T15:27:30;9.10;;;4.90;;
67640;SDS011;54434;50.096;20.082;2023-06-14T15:30:12;9.70;;;4.50;;
67640;SDS011;54434;50.096;20.082;2023-06-14T15:35:24;5.00;;;2.70;;